Time;durP1;ratioP1;P1;durP2;ratioP2;P2;SDS_P1;SDS_P2;PMS_P1;PMS_P2;Temp;Humidity;BMP_temperature;BMP_pressure;BME280_temperature;BME280_humidity;BME280_pressure;Samples;Min_cycle;Max_cycle;Signal;HPM_P1;HPM_P2
2022/01/01 00:00:44;;;;;;;4.00;1.60;;;;;;;;;;4992084;28;20426;-82
2022/01/01 00:03:10;;;;;;;13.30;1.50;;;;;;;;;;4992029;28;20442;-83
2022/01/01 00:05:37;;;;;;;9.97;3.00;;;;;;;;;;4992283;28;20414;-82
2022/01/01 00:08:05;;;;;;;2.43;1.30;;;;;;;;;;4992405;28;20470;-87
2022/01/01 00:10:31;;;;;;;3.83;1.40;;;;;;;;;;4991876;28;20442;-80
2022/01/01 00:12:57;;;;;;;3.77;1.47;;;;;;;;;;5001533;28;20487;-86
2022/01/01 00:15:23;;;;;;;3.63;1.63;;;;;;;;;;5012170;28;20420;-82
2022/01/01 00:17:50;;;;;;;5.50;2.10;;;;;;;;;;5011716;28;20418;-88
2022/01/01 00:20:16;;;;;;;8.60;1.70;;;;;;;;;;5011436;28;20838;-83
2022/01/01 00:22:43;;;;;;;3.23;2.00;;;;;;;;;;5011610;28;20437;-81
2022/01/01 00:25:11;;;;;;;2.60;1.40;;;;;;;;;;5011764;28;20421;-87
2022/01/01 00:27:37;;;;;;;4.60;1.70;;;;;;;;;;5011733;28;20452;-86
2022/01/01 00:30:06;;;;;;;3.30;1.80;;;;;;;;;;5011591;28;20420;-84
2022/01/01 00:32:32;;;;;;;3.30;1.30;;;;;;;;;;5011130;28;20460;-84
2022/01/01 00:34:58;;;;;;;2.13;1.23;;;;;;;;;;5011613;28;20417;-84
2022/01/01 00:37:24;;;;;;;1.87;1.27;;;;;;;;;;5011408;28;20406;-83
2022/01/01 00:39:51;;;;;;;2.50;1.40;;;;;;;;;;5011626;28;20420;-82
2022/01/01 00:42:16;;;;;;;2.30;1.43;;;;;;;;;;5010985;28;20414;-80
2022/01/01 00:44:42;;;;;;;2.40;1.30;;;;;;;;;;5011852;28;20428;-82
2022/01/01 00:47:08;;;;;;;3.60;1.73;;;;;;;;;;5012859;28;20408;-82
2022/01/01 00:49:35;;;;;;;2.80;1.60;;;;;;;;;;5011355;28;20458;-86
2022/01/01 00:52:00;;;;;;;5.63;1.20;;;;;;;;;;5010902;28;20500;-79
2022/01/01 00:54:26;;;;;;;3.03;1.60;;;;;;;;;;5010990;28;20460;-78
2022/01/01 00:56:52;;;;;;;20.50;2.07;;;;;;;;;;5011202;28;20762;-79
2022/01/01 00:59:20;;;;;;;2.10;1.10;;;;;;;;;;5012166;28;20413;-79
2022/01/01 01:01:46;;;;;;;3.20;1.60;;;;;;;;;;5014457;28;20844;-80
2022/01/01 01:04:12;;;;;;;1.77;1.23;;;;;;;;;;5014606;28;20996;-78
2022/01/01 01:06:38;;;;;;;1.20;0.80;;;;;;;;;;5014642;28;20425;-84
2022/01/01 01:09:05;;;;;;;3.57;1.83;;;;;;;;;;5014785;28;20461;-85
2022/01/01 01:11:31;;;;;;;2.20;1.20;;;;;;;;;;5014484;28;20980;-82
2022/01/01 01:13:59;;;;;;;4.33;1.43;;;;;;;;;;5014499;28;20429;-81
2022/01/01 01:16:28;;;;;;;1.50;0.90;;;;;;;;;;5014676;28;20425;-80
2022/01/01 01:18:54;;;;;;;4.00;1.50;;;;;;;;;;5014871;28;20488;-80
2022/01/01 01:21:24;;;;;;;1.60;0.90;;;;;;;;;;5009380;28;20419;-81
2022/01/01 01:23:51;;;;;;;1.43;0.93;;;;;;;;;;4994801;28;21015;-82
2022/01/01 01:26:17;;;;;;;2.27;1.20;;;;;;;;;;4995127;28;20410;-76
2022/01/01 01:28:50;;;;;;;2.27;1.30;;;;;;;;;;4994857;28;20534;-75
2022/01/01 01:31:16;;;;;;;2.47;1.20;;;;;;;;;;4994709;28;20415;-82
2022/01/01 01:33:43;;;;;;;9.30;1.63;;;;;;;;;;4994681;28;20441;-85
2022/01/01 01:36:09;;;;;;;1.63;1.13;;;;;;;;;;4994787;28;20977;-85
2022/01/01 01:38:36;;;;;;;4.30;1.53;;;;;;;;;;4996022;28;20406;-84
2022/01/01 01:41:06;;;;;;;6.00;1.80;;;;;;;;;;4994396;28;20410;-84
2022/01/01 01:43:32;;;;;;;2.60;1.07;;;;;;;;;;4994110;28;20508;-85
2022/01/01 01:46:03;;;;;;;4.10;1.00;;;;;;;;;;4994445;28;20442;-85
2022/01/01 01:48:30;;;;;;;2.03;1.40;;;;;;;;;;5000384;28;21306;-86
2022/01/01 01:50:57;;;;;;;3.10;1.50;;;;;;;;;;5013494;28;20429;-86
2022/01/01 01:53:23;;;;;;;6.33;1.50;;;;;;;;;;5013722;28;20438;-86
2022/01/01 01:55:49;;;;;;;3.40;1.20;;;;;;;;;;5013936;28;20481;-85
2022/01/01 01:58:16;;;;;;;3.93;1.10;;;;;;;;;;5012903;28;20511;-83
2022/01/01 02:03:27;;;;;;;3.60;1.50;;;;;;;;;;5015039;28;20571;-85
2022/01/01 02:05:53;;;;;;;3.60;1.60;;;;;;;;;;5013918;28;20413;-86
2022/01/01 02:08:20;;;;;;;2.73;1.70;;;;;;;;;;5013905;28;20565;-85
2022/01/01 02:10:51;;;;;;;3.03;1.30;;;;;;;;;;5012633;28;20430;-86
2022/01/01 02:13:24;;;;;;;3.30;2.23;;;;;;;;;;5013789;28;20436;-83
2022/01/01 02:18:16;;;;;;;2.43;1.40;;;;;;;;;;5014401;28;20414;-84
2022/01/01 02:20:49;;;;;;;3.23;2.00;;;;;;;;;;5013166;28;20947;-84
2022/01/01 02:23:15;;;;;;;4.57;1.43;;;;;;;;;;5013538;28;20433;-84
2022/01/01 02:25:41;;;;;;;4.57;1.90;;;;;;;;;;5013560;28;20406;-84
2022/01/01 02:28:09;;;;;;;2.07;1.50;;;;;;;;;;5013487;28;20547;-84
2022/01/01 02:30:35;;;;;;;2.23;1.40;;;;;;;;;;5012779;28;20914;-84
2022/01/01 02:33:01;;;;;;;3.47;1.63;;;;;;;;;;5013309;28;20437;-84
2022/01/01 02:35:27;;;;;;;1.83;1.30;;;;;;;;;;5013301;28;20418;-82
2022/01/01 02:37:53;;;;;;;2.20;1.40;;;;;;;;;;5013216;28;20416;-83
2022/01/01 02:40:19;;;;;;;5.40;1.70;;;;;;;;;;5011735;28;20472;-79
2022/01/01 02:42:46;;;;;;;13.37;1.50;;;;;;;;;;5012523;28;20827;-80
2022/01/01 02:45:13;;;;;;;2.00;1.10;;;;;;;;;;5013088;28;20906;-84
2022/01/01 02:47:39;;;;;;;2.87;1.70;;;;;;;;;;5013060;28;20493;-85
2022/01/01 02:50:06;;;;;;;2.37;1.60;;;;;;;;;;5012844;28;20512;-85
2022/01/01 02:52:32;;;;;;;6.77;1.40;;;;;;;;;;5012594;28;20414;-85
2022/01/01 02:54:58;;;;;;;2.57;1.40;;;;;;;;;;5012995;28;20560;-84
2022/01/01 02:57:24;;;;;;;3.00;1.60;;;;;;;;;;5012932;28;20449;-85
2022/01/01 02:59:50;;;;;;;2.90;1.53;;;;;;;;;;5012955;28;20770;-86
2022/01/01 03:02:17;;;;;;;5.73;1.30;;;;;;;;;;5012449;28;20466;-83
2022/01/01 03:04:43;;;;;;;3.50;1.50;;;;;;;;;;5012841;28;20409;-84
2022/01/01 03:07:09;;;;;;;3.33;1.53;;;;;;;;;;5012809;28;20517;-85
2022/01/01 03:09:35;;;;;;;3.97;1.70;;;;;;;;;;5013804;28;20507;-82
2022/01/01 03:12:04;;;;;;;2.03;1.30;;;;;;;;;;5012403;28;20471;-86
2022/01/01 03:14:31;;;;;;;3.27;1.60;;;;;;;;;;5012670;28;20438;-84
2022/01/01 03:16:57;;;;;;;1.93;1.27;;;;;;;;;;5012581;28;20409;-84
2022/01/01 03:19:23;;;;;;;2.10;1.40;;;;;;;;;;5012706;28;20409;-84
2022/01/01 03:21:49;;;;;;;3.60;1.67;;;;;;;;;;5012110;28;20447;-85
2022/01/01 03:24:15;;;;;;;8.73;1.80;;;;;;;;;;5012456;28;20925;-86
2022/01/01 03:26:41;;;;;;;3.50;1.87;;;;;;;;;;5012479;28;20424;-86
2022/01/01 03:29:07;;;;;;;2.40;1.50;;;;;;;;;;5012437;28;20472;-88
2022/01/01 03:31:33;;;;;;;1.97;1.23;;;;;;;;;;5012035;28;20413;-87
2022/01/01 03:33:59;;;;;;;2.93;1.90;;;;;;;;;;5012268;28;20948;-88
2022/01/01 03:36:29;;;;;;;3.23;1.67;;;;;;;;;;5012439;28;20410;-86
2022/01/01 03:38:55;;;;;;;2.50;1.63;;;;;;;;;;5012195;28;20417;-81
2022/01/01 03:41:21;;;;;;;2.80;1.43;;;;;;;;;;5011857;28;20417;-81
2022/01/01 03:43:47;;;;;;;3.87;1.43;;;;;;;;;;5011813;28;20490;-81
2022/01/01 03:46:13;;;;;;;2.87;1.87;;;;;;;;;;5011986;28;20429;-82
2022/01/01 03:48:39;;;;;;;3.63;1.30;;;;;;;;;;5011819;28;20449;-81
2022/01/01 03:51:05;;;;;;;1.63;1.07;;;;;;;;;;5011662;28;20910;-85
2022/01/01 03:53:31;;;;;;;3.77;1.73;;;;;;;;;;5011847;28;20460;-80
2022/01/01 03:55:59;;;;;;;3.10;1.40;;;;;;;;;;5013300;28;20429;-83
2022/01/01 03:58:25;;;;;;;3.20;1.60;;;;;;;;;;5011906;28;20409;-83
2022/01/01 04:00:51;;;;;;;3.23;1.50;;;;;;;;;;5011792;28;20405;-83
2022/01/01 04:03:17;;;;;;;2.67;1.33;;;;;;;;;;5011990;28;20457;-83
2022/01/01 04:05:44;;;;;;;3.10;1.13;;;;;;;;;;5012066;28;20413;-83
2022/01/01 04:08:11;;;;;;;5.70;1.43;;;;;;;;;;5011949;28;20457;-83
2022/01/01 04:10:38;;;;;;;4.03;1.40;;;;;;;;;;5011469;28;20483;-83
2022/01/01 04:13:04;;;;;;;2.70;1.50;;;;;;;;;;5011677;28;20433;-83
2022/01/01 04:15:31;;;;;;;2.40;1.50;;;;;;;;;;5011930;28;20441;-83
2022/01/01 04:18:01;;;;;;;4.17;1.70;;;;;;;;;;5011836;28;20414;-83
2022/01/01 04:20:27;;;;;;;5.23;1.20;;;;;;;;;;5011863;28;20418;-83
2022/01/01 04:22:54;;;;;;;5.37;1.57;;;;;;;;;;5011726;28;20426;-83
2022/01/01 04:25:21;;;;;;;2.30;1.37;;;;;;;;;;5011711;28;20479;-83
2022/01/01 04:27:50;;;;;;;1.93;1.20;;;;;;;;;;5011665;28;20457;-83
2022/01/01 04:30:17;;;;;;;5.50;1.60;;;;;;;;;;5011537;28;20409;-83
2022/01/01 04:32:43;;;;;;;2.40;1.50;;;;;;;;;;5011614;28;20422;-83
2022/01/01 04:35:09;;;;;;;3.27;1.70;;;;;;;;;;5014202;28;20401;-84
2022/01/01 04:37:36;;;;;;;3.10;1.67;;;;;;;;;;5015585;28;20405;-85
2022/01/01 04:40:03;;;;;;;4.77;2.00;;;;;;;;;;5015239;28;20914;-83
2022/01/01 04:42:30;;;;;;;1.90;1.40;;;;;;;;;;5014876;28;20409;-83
2022/01/01 04:44:57;;;;;;;1.80;1.40;;;;;;;;;;5015402;28;20504;-83
2022/01/01 04:47:24;;;;;;;3.00;1.87;;;;;;;;;;5015462;28;20420;-84
2022/01/01 04:49:50;;;;;;;3.53;1.63;;;;;;;;;;5015313;28;20457;-85
2022/01/01 04:52:16;;;;;;;2.30;1.20;;;;;;;;;;5014974;28;20460;-85
2022/01/01 04:54:43;;;;;;;2.53;1.50;;;;;;;;;;5015240;28;20397;-85
2022/01/01 04:57:10;;;;;;;4.53;2.03;;;;;;;;;;5015244;28;20410;-84
2022/01/01 04:59:36;;;;;;;3.57;1.37;;;;;;;;;;5015065;28;20890;-84
2022/01/01 05:02:03;;;;;;;4.90;1.53;;;;;;;;;;5014682;28;20975;-84
2022/01/01 05:04:29;;;;;;;3.17;1.53;;;;;;;;;;5015066;28;20444;-85
2022/01/01 05:06:55;;;;;;;3.43;1.67;;;;;;;;;;5014979;28;20839;-84
2022/01/01 05:09:21;;;;;;;2.60;1.80;;;;;;;;;;5014934;28;20453;-81
2022/01/01 05:11:48;;;;;;;1.67;1.10;;;;;;;;;;5014398;28;20920;-81
2022/01/01 05:14:14;;;;;;;2.53;1.57;;;;;;;;;;5014680;28;20448;-78
2022/01/01 05:16:41;;;;;;;2.23;1.30;;;;;;;;;;5014685;28;20405;-80
2022/01/01 05:19:07;;;;;;;2.90;1.37;;;;;;;;;;5014608;28;20472;-79
2022/01/01 05:21:35;;;;;;;2.57;1.80;;;;;;;;;;5014361;28;20440;-81
2022/01/01 05:24:02;;;;;;;2.77;1.20;;;;;;;;;;5014390;28;20445;-80
2022/01/01 05:26:28;;;;;;;4.63;2.20;;;;;;;;;;5014677;28;20417;-83
2022/01/01 05:28:54;;;;;;;3.90;2.47;;;;;;;;;;5014404;28;20500;-83
2022/01/01 05:31:20;;;;;;;3.40;1.80;;;;;;;;;;5014319;28;20464;-85
2022/01/01 05:33:47;;;;;;;2.40;1.47;;;;;;;;;;5014436;28;20433;-85
2022/01/01 05:36:16;;;;;;;3.30;1.60;;;;;;;;;;5015804;28;20430;-86
2022/01/01 05:38:43;;;;;;;2.83;1.97;;;;;;;;;;5014433;28;20424;-84
2022/01/01 05:41:09;;;;;;;2.23;1.40;;;;;;;;;;5014138;28;20410;-85
2022/01/01 05:43:36;;;;;;;2.93;1.57;;;;;;;;;;5014301;28;20437;-87
2022/01/01 05:46:03;;;;;;;1.83;1.20;;;;;;;;;;5013099;28;20432;-84
2022/01/01 05:48:29;;;;;;;1.90;1.50;;;;;;;;;;5014329;28;20531;-85
2022/01/01 05:50:55;;;;;;;3.00;1.70;;;;;;;;;;5013974;28;20444;-86
2022/01/01 05:53:21;;;;;;;3.43;1.90;;;;;;;;;;5014032;28;20445;-87
2022/01/01 05:55:48;;;;;;;3.77;1.93;;;;;;;;;;5014116;28;20409;-84
2022/01/01 05:58:14;;;;;;;3.30;1.70;;;;;;;;;;5014058;28;20414;-86
2022/01/01 06:00:40;;;;;;;3.70;1.47;;;;;;;;;;5013754;28;20409;-86
2022/01/01 06:03:06;;;;;;;2.57;1.77;;;;;;;;;;5013866;28;20519;-86
2022/01/01 06:05:33;;;;;;;2.90;1.93;;;;;;;;;;5013652;28;20902;-84
2022/01/01 06:07:59;;;;;;;2.50;1.53;;;;;;;;;;5013758;28;20496;-83
2022/01/01 06:10:25;;;;;;;2.70;1.50;;;;;;;;;;5013217;28;20437;-79
2022/01/01 06:12:52;;;;;;;2.90;1.20;;;;;;;;;;5013453;28;20462;-79
2022/01/01 06:15:18;;;;;;;5.97;2.10;;;;;;;;;;5013521;28;20417;-80
2022/01/01 06:17:44;;;;;;;3.10;1.67;;;;;;;;;;5013423;28;20440;-81
2022/01/01 06:20:11;;;;;;;7.70;2.27;;;;;;;;;;5013396;28;20468;-81
2022/01/01 06:22:37;;;;;;;2.60;1.67;;;;;;;;;;5012934;28;20442;-81
2022/01/01 06:25:04;;;;;;;6.73;1.20;;;;;;;;;;5013332;28;20414;-82
2022/01/01 06:27:30;;;;;;;3.20;1.60;;;;;;;;;;5013367;28;20413;-80
2022/01/01 06:29:56;;;;;;;2.67;1.60;;;;;;;;;;5014513;28;20469;-81
2022/01/01 06:32:22;;;;;;;2.93;1.57;;;;;;;;;;5012896;28;20831;-81
2022/01/01 06:34:48;;;;;;;3.03;1.50;;;;;;;;;;5013297;28;20424;-81
2022/01/01 06:37:14;;;;;;;2.17;1.60;;;;;;;;;;5013234;28;20441;-81
2022/01/01 06:39:40;;;;;;;2.93;1.90;;;;;;;;;;5013118;28;20835;-82
2022/01/01 06:42:07;;;;;;;2.43;1.83;;;;;;;;;;5012775;28;20428;-83
2022/01/01 06:44:33;;;;;;;3.73;1.50;;;;;;;;;;5013077;28;20426;-82
2022/01/01 06:46:59;;;;;;;3.87;1.93;;;;;;;;;;5012951;28;20417;-80
2022/01/01 06:49:25;;;;;;;1.50;1.20;;;;;;;;;;5012900;28;20969;-82
2022/01/01 06:51:51;;;;;;;3.00;1.47;;;;;;;;;;5013983;28;20402;-83
2022/01/01 06:54:17;;;;;;;3.90;1.70;;;;;;;;;;5012816;28;20425;-83
2022/01/01 06:56:43;;;;;;;4.13;1.57;;;;;;;;;;5012385;28;20410;-83
2022/01/01 06:59:09;;;;;;;1.90;1.20;;;;;;;;;;5012854;28;20442;-81
2022/01/01 07:01:36;;;;;;;3.60;1.70;;;;;;;;;;5012008;28;20468;-82
2022/01/01 07:04:03;;;;;;;2.43;1.50;;;;;;;;;;5012627;28;20971;-81
2022/01/01 07:06:30;;;;;;;2.90;1.63;;;;;;;;;;5012700;28;20417;-80
2022/01/01 07:08:56;;;;;;;2.20;1.30;;;;;;;;;;5012505;28;20519;-79
2022/01/01 07:11:23;;;;;;;2.00;1.40;;;;;;;;;;5012288;28;20945;-80
2022/01/01 07:13:49;;;;;;;2.87;1.60;;;;;;;;;;5012415;28;20501;-81
2022/01/01 07:16:15;;;;;;;2.80;1.70;;;;;;;;;;5013839;28;20424;-83
2022/01/01 07:18:41;;;;;;;2.57;1.60;;;;;;;;;;5012622;28;20610;-83
2022/01/01 07:21:08;;;;;;;3.13;1.60;;;;;;;;;;5012269;28;20882;-83
2022/01/01 07:23:34;;;;;;;2.20;1.40;;;;;;;;;;5012348;28;20426;-83
2022/01/01 07:26:00;;;;;;;2.70;1.83;;;;;;;;;;5012405;28;20444;-83
2022/01/01 07:28:26;;;;;;;3.03;1.63;;;;;;;;;;5012206;28;20542;-79
2022/01/01 07:30:52;;;;;;;2.03;1.17;;;;;;;;;;5012004;28;20421;-86
2022/01/01 07:33:18;;;;;;;2.37;1.50;;;;;;;;;;5012480;28;20484;-86
2022/01/01 07:35:45;;;;;;;3.57;1.37;;;;;;;;;;5012505;28;20471;-87
2022/01/01 07:38:11;;;;;;;4.00;1.77;;;;;;;;;;5012460;28;21214;-87
2022/01/01 07:40:39;;;;;;;2.73;1.53;;;;;;;;;;5012168;28;20898;-86
2022/01/01 07:43:15;;;;;;;2.37;1.60;;;;;;;;;;5012248;28;20508;-87
2022/01/01 07:45:42;;;;;;;1.93;1.53;;;;;;;;;;5012530;28;20914;-87
2022/01/01 07:48:08;;;;;;;1.70;1.20;;;;;;;;;;5012322;28;20464;-87
2022/01/01 07:50:35;;;;;;;4.40;1.87;;;;;;;;;;5012057;28;20413;-86
2022/01/01 07:53:01;;;;;;;2.50;1.70;;;;;;;;;;5011862;28;21045;-85
2022/01/01 07:55:27;;;;;;;4.50;1.77;;;;;;;;;;5011931;28;20476;-84
2022/01/01 07:57:53;;;;;;;3.60;1.90;;;;;;;;;;5011910;28;20476;-84
2022/01/01 08:00:20;;;;;;;2.53;1.50;;;;;;;;;;5011530;28;20409;-84
2022/01/01 08:02:47;;;;;;;2.50;1.93;;;;;;;;;;5011813;28;20460;-82
2022/01/01 08:05:15;;;;;;;3.17;1.60;;;;;;;;;;5011887;28;20808;-81
2022/01/01 08:07:42;;;;;;;3.73;1.60;;;;;;;;;;5011846;28;20921;-84
2022/01/01 08:10:08;;;;;;;2.10;1.40;;;;;;;;;;5014319;28;20420;-79
2022/01/01 08:12:34;;;;;;;18.00;5.17;;;;;;;;;;5015606;28;20412;-82
2022/01/01 08:15:01;;;;;;;21.70;6.20;;;;;;;;;;5016110;28;20455;-82
2022/01/01 08:17:27;;;;;;;16.90;8.53;;;;;;;;;;5016024;28;20440;-83
2022/01/01 08:19:53;;;;;;;4.90;3.30;;;;;;;;;;5016044;28;20508;-83
2022/01/01 08:22:19;;;;;;;5.67;2.90;;;;;;;;;;5015507;28;20417;-82
2022/01/01 08:24:46;;;;;;;9.47;4.73;;;;;;;;;;5015516;28;20431;-82
2022/01/01 08:27:12;;;;;;;6.07;4.13;;;;;;;;;;5015626;28;20409;-82
2022/01/01 08:29:39;;;;;;;13.40;5.87;;;;;;;;;;5015314;28;21006;-83
2022/01/01 08:32:05;;;;;;;4.73;3.40;;;;;;;;;;5015283;28;20414;-80
2022/01/01 08:34:31;;;;;;;7.53;3.87;;;;;;;;;;5015444;28;20429;-82
2022/01/01 08:36:57;;;;;;;6.83;4.03;;;;;;;;;;5015655;28;20416;-82
2022/01/01 08:39:23;;;;;;;18.63;8.43;;;;;;;;;;5015355;28;20433;-82
2022/01/01 08:41:49;;;;;;;14.33;9.80;;;;;;;;;;5015112;28;20421;-82
2022/01/01 08:44:16;;;;;;;7.63;4.20;;;;;;;;;;5015124;28;20536;-82
2022/01/01 08:46:45;;;;;;;5.30;3.40;;;;;;;;;;5015404;28;20504;-84
2022/01/01 08:49:12;;;;;;;9.10;5.13;;;;;;;;;;5015309;28;20461;-86
2022/01/01 08:51:41;;;;;;;10.27;5.80;;;;;;;;;;5014772;28;20406;-81
2022/01/01 08:54:07;;;;;;;8.10;4.57;;;;;;;;;;5015064;28;20920;-84
2022/01/01 08:56:33;;;;;;;12.43;6.83;;;;;;;;;;5015156;28;20423;-82
2022/01/01 08:59:00;;;;;;;11.97;5.30;;;;;;;;;;5015215;28;20458;-78
2022/01/01 09:01:26;;;;;;;7.17;4.50;;;;;;;;;;5014632;28;20418;-84
2022/01/01 09:03:56;;;;;;;12.53;5.90;;;;;;;;;;5014729;28;20458;-82
2022/01/01 09:06:24;;;;;;;26.43;11.33;;;;;;;;;;5014228;28;20425;-83
2022/01/01 09:08:50;;;;;;;42.30;17.53;;;;;;;;;;5013925;28;20461;-82
2022/01/01 09:11:16;;;;;;;44.27;17.70;;;;;;;;;;5014505;28;20775;-84
2022/01/01 09:13:43;;;;;;;27.70;15.67;;;;;;;;;;5014811;28;20441;-84
2022/01/01 09:16:14;;;;;;;43.07;14.40;;;;;;;;;;5014941;28;20410;-83
2022/01/01 09:18:41;;;;;;;47.57;19.73;;;;;;;;;;5014776;28;20441;-84
2022/01/01 09:21:08;;;;;;;34.10;18.33;;;;;;;;;;5014187;28;20492;-84
2022/01/01 09:23:34;;;;;;;35.47;18.93;;;;;;;;;;5014372;28;20544;-84
2022/01/01 09:26:01;;;;;;;32.37;16.57;;;;;;;;;;5014710;28;20414;-84
2022/01/01 09:28:28;;;;;;;27.60;16.07;;;;;;;;;;5014637;28;20544;-84
2022/01/01 09:30:54;;;;;;;18.37;9.90;;;;;;;;;;5014291;28;20417;-84
2022/01/01 09:33:20;;;;;;;13.17;7.43;;;;;;;;;;5014323;28;20523;-84
2022/01/01 09:35:46;;;;;;;20.07;12.47;;;;;;;;;;5014472;28;20406;-84
2022/01/01 09:38:12;;;;;;;14.20;6.07;;;;;;;;;;5014466;28;20484;-85
2022/01/01 09:40:38;;;;;;;16.03;9.33;;;;;;;;;;5012175;28;20829;-81
2022/01/01 09:43:05;;;;;;;11.57;5.40;;;;;;;;;;4994534;28;20438;-83
2022/01/01 09:45:32;;;;;;;9.10;4.93;;;;;;;;;;4996266;28;20422;-82
2022/01/01 09:48:00;;;;;;;6.03;3.40;;;;;;;;;;5014138;28;20420;-79
2022/01/01 09:50:26;;;;;;;8.00;2.17;;;;;;;;;;5011260;28;20427;-78
2022/01/01 09:52:52;;;;;;;11.13;3.87;;;;;;;;;;4994521;28;20434;-80
2022/01/01 09:55:18;;;;;;;14.87;2.97;;;;;;;;;;5007075;28;20443;-76
2022/01/01 09:57:44;;;;;;;8.90;4.23;;;;;;;;;;5013962;28;20751;-74
2022/01/01 10:00:11;;;;;;;13.10;3.83;;;;;;;;;;5013011;28;20484;-79
2022/01/01 10:02:37;;;;;;;24.30;3.57;;;;;;;;;;5013270;28;20453;-80
2022/01/01 10:05:05;;;;;;;14.10;4.70;;;;;;;;;;5015025;28;20398;-78
2022/01/01 10:07:31;;;;;;;11.53;5.50;;;;;;;;;;5013644;28;20418;-79
2022/01/01 10:09:58;;;;;;;4.13;2.17;;;;;;;;;;5012086;28;20473;-81
2022/01/01 10:12:43;;;;;;;2.90;1.90;;;;;;;;;;5013270;28;20942;-82
2022/01/01 10:15:10;;;;;;;3.27;2.00;;;;;;;;;;5013786;28;20416;-79
2022/01/01 10:17:36;;;;;;;3.53;1.60;;;;;;;;;;5013498;28;20424;-81
2022/01/01 10:20:03;;;;;;;2.67;1.57;;;;;;;;;;5013407;28;20520;-80
2022/01/01 10:22:29;;;;;;;2.20;1.53;;;;;;;;;;5013093;28;20417;-82
2022/01/01 10:28:01;;;;;;;2.87;1.90;;;;;;;;;;5014945;28;20400;-82
2022/01/01 10:30:36;;;;;;;5.40;2.30;;;;;;;;;;5012264;28;20989;-81
2022/01/01 10:33:21;;;;;;;2.20;1.50;;;;;;;;;;5012310;28;21144;-81
2022/01/01 10:35:53;;;;;;;2.03;1.40;;;;;;;;;;5011731;28;20429;-81
2022/01/01 10:38:20;;;;;;;2.20;1.50;;;;;;;;;;5012947;28;20457;-82
2022/01/01 10:40:46;;;;;;;2.43;1.40;;;;;;;;;;5012844;28;20414;-83
2022/01/01 10:43:15;;;;;;;2.60;1.50;;;;;;;;;;5012713;28;20441;-80
2022/01/01 10:45:47;;;;;;;2.33;1.43;;;;;;;;;;5009983;28;20936;-80
2022/01/01 10:51:10;;;;;;;2.73;1.80;;;;;;;;;;5005548;28;20417;-81
2022/01/01 10:53:37;;;;;;;2.10;1.50;;;;;;;;;;5008648;28;20421;-80
2022/01/01 10:56:22;;;;;;;3.30;1.70;;;;;;;;;;5009350;28;20418;-81
2022/01/01 10:58:59;;;;;;;1.83;1.37;;;;;;;;;;5012574;28;20445;-80
2022/01/01 11:01:25;;;;;;;2.67;1.77;;;;;;;;;;5012130;28;20482;-83
2022/01/01 11:03:54;;;;;;;2.93;1.63;;;;;;;;;;5008502;28;20449;-83
2022/01/01 11:06:20;;;;;;;2.30;1.37;;;;;;;;;;4996915;28;20410;-79
2022/01/01 11:08:47;;;;;;;3.77;2.00;;;;;;;;;;5012262;28;20556;-81
2022/01/01 11:11:14;;;;;;;3.43;1.70;;;;;;;;;;5011040;28;20444;-80
2022/01/01 11:13:41;;;;;;;3.00;1.77;;;;;;;;;;5007728;28;20968;-79
2022/01/01 11:16:08;;;;;;;3.83;2.13;;;;;;;;;;5011760;28;20475;-81
2022/01/01 11:18:34;;;;;;;2.60;1.83;;;;;;;;;;5012512;28;20421;-79
2022/01/01 11:21:01;;;;;;;2.70;1.80;;;;;;;;;;5012184;28;20473;-78
2022/01/01 11:23:27;;;;;;;4.33;2.50;;;;;;;;;;5008269;28;20525;-79
2022/01/01 11:25:54;;;;;;;3.80;1.93;;;;;;;;;;5012044;28;20441;-79
2022/01/01 11:28:21;;;;;;;5.03;2.50;;;;;;;;;;5013653;28;20453;-79
2022/01/01 11:30:52;;;;;;;3.83;1.90;;;;;;;;;;5011754;28;20437;-81
2022/01/01 11:33:28;;;;;;;2.60;2.00;;;;;;;;;;5012037;28;20438;-83
2022/01/01 11:36:03;;;;;;;9.13;1.73;;;;;;;;;;5015906;28;20424;-83
2022/01/01 11:38:31;;;;;;;5.03;2.70;;;;;;;;;;5032871;28;20408;-83
2022/01/01 11:40:58;;;;;;;5.00;1.80;;;;;;;;;;5031736;28;20455;-83
2022/01/01 11:43:37;;;;;;;4.17;2.13;;;;;;;;;;5033136;28;20451;-83
2022/01/01 11:46:10;;;;;;;4.30;2.10;;;;;;;;;;5030410;28;20931;-77
2022/01/01 11:48:41;;;;;;;5.97;1.70;;;;;;;;;;4998827;28;21036;-82
2022/01/01 11:51:24;;;;;;;5.30;2.30;;;;;;;;;;4999511;28;20501;-80
2022/01/01 11:54:03;;;;;;;7.90;2.50;;;;;;;;;;4992215;28;20493;-81
2022/01/01 11:56:49;;;;;;;5.20;1.87;;;;;;;;;;5000686;28;20440;-80
2022/01/01 11:59:28;;;;;;;4.50;2.60;;;;;;;;;;5010330;28;20409;-83
2022/01/01 12:01:58;;;;;;;2.30;1.50;;;;;;;;;;5010838;28;20425;-79
2022/01/01 12:04:27;;;;;;;4.57;2.30;;;;;;;;;;5011843;28;20495;-77
2022/01/01 12:07:00;;;;;;;3.10;1.87;;;;;;;;;;5011860;28;20421;-83
2022/01/01 12:09:26;;;;;;;4.27;2.20;;;;;;;;;;5012103;28;20460;-80
2022/01/01 12:11:58;;;;;;;2.93;1.83;;;;;;;;;;5011620;28;20437;-80
2022/01/01 12:14:26;;;;;;;4.00;2.00;;;;;;;;;;5011907;28;20783;-83
2022/01/01 12:16:55;;;;;;;2.43;1.83;;;;;;;;;;5011957;28;20401;-77
2022/01/01 12:19:23;;;;;;;2.60;1.60;;;;;;;;;;5011887;28;20421;-74
2022/01/01 12:21:59;;;;;;;3.23;1.70;;;;;;;;;;5011495;28;20906;-76
2022/01/01 12:24:27;;;;;;;3.07;1.73;;;;;;;;;;5011777;28;20441;-75
2022/01/01 12:26:53;;;;;;;3.40;1.80;;;;;;;;;;5011759;28;20475;-79
2022/01/01 12:29:25;;;;;;;3.93;2.50;;;;;;;;;;5010521;28;20465;-76
2022/01/01 12:31:55;;;;;;;4.27;2.17;;;;;;;;;;5011092;28;20417;-73
2022/01/01 12:34:22;;;;;;;3.50;1.90;;;;;;;;;;5011365;28;20783;-72
2022/01/01 12:36:57;;;;;;;2.67;1.40;;;;;;;;;;5011546;28;20413;-72
2022/01/01 12:39:23;;;;;;;2.80;1.50;;;;;;;;;;5011737;28;20460;-72
2022/01/01 12:41:52;;;;;;;3.80;1.33;;;;;;;;;;5011029;28;20424;-73
2022/01/01 12:44:20;;;;;;;5.90;1.80;;;;;;;;;;5011548;28;20948;-73
2022/01/01 12:49:20;;;;;;;1.97;1.40;;;;;;;;;;5014583;28;20483;-82
2022/01/01 12:51:51;;;;;;;2.07;1.33;;;;;;;;;;5017553;28;20465;-84
2022/01/01 12:54:17;;;;;;;3.07;1.77;;;;;;;;;;5016716;28;20436;-84
2022/01/01 12:56:44;;;;;;;3.00;1.70;;;;;;;;;;5020178;28;20841;-83
2022/01/01 12:59:11;;;;;;;2.33;1.50;;;;;;;;;;5018806;28;20497;-83
2022/01/01 13:01:38;;;;;;;1.80;1.10;;;;;;;;;;5019881;28;20504;-83
2022/01/01 13:04:12;;;;;;;1.90;1.37;;;;;;;;;;5020371;28;20409;-84
2022/01/01 13:06:39;;;;;;;2.17;1.23;;;;;;;;;;5021320;28;20417;-83
2022/01/01 13:09:16;;;;;;;3.13;1.57;;;;;;;;;;5020850;28;20508;-83
2022/01/01 13:11:44;;;;;;;3.70;1.60;;;;;;;;;;5022701;28;20493;-83
2022/01/01 13:14:11;;;;;;;4.77;1.67;;;;;;;;;;5023081;28;20413;-83
2022/01/01 13:16:37;;;;;;;3.70;1.70;;;;;;;;;;5021242;28;20428;-83
2022/01/01 13:19:06;;;;;;;1.80;1.10;;;;;;;;;;5036414;28;20445;-83
2022/01/01 13:21:33;;;;;;;2.37;1.40;;;;;;;;;;5022129;28;20418;-83
2022/01/01 13:24:00;;;;;;;1.47;1.07;;;;;;;;;;5038301;28;20509;-82
2022/01/01 13:26:26;;;;;;;1.80;1.07;;;;;;;;;;5037891;28;20455;-81
2022/01/01 13:28:54;;;;;;;2.03;1.23;;;;;;;;;;5021268;28;20536;-82
2022/01/01 13:31:21;;;;;;;2.77;1.40;;;;;;;;;;5021206;28;20428;-82
2022/01/01 13:33:48;;;;;;;2.40;1.30;;;;;;;;;;5019075;28;20410;-82
2022/01/01 13:36:33;;;;;;;2.50;1.37;;;;;;;;;;5022151;28;20413;-82
2022/01/01 13:39:02;;;;;;;2.30;1.30;;;;;;;;;;5021012;28;20445;-82
2022/01/01 13:41:42;;;;;;;1.90;1.20;;;;;;;;;;5038062;28;20422;-82
2022/01/01 13:44:24;;;;;;;1.70;1.30;;;;;;;;;;5008736;28;21233;-82
2022/01/01 13:46:52;;;;;;;2.63;1.60;;;;;;;;;;5019143;28;20432;-83
2022/01/01 13:49:18;;;;;;;2.40;1.40;;;;;;;;;;5019360;28;20484;-82
2022/01/01 13:51:44;;;;;;;2.67;1.50;;;;;;;;;;5021532;28;20402;-81
2022/01/01 13:54:13;;;;;;;3.50;1.70;;;;;;;;;;5019263;28;20424;-82
2022/01/01 13:56:39;;;;;;;2.67;1.30;;;;;;;;;;5028356;28;20967;-82
2022/01/01 13:59:06;;;;;;;3.83;1.40;;;;;;;;;;5043983;28;20428;-82
2022/01/01 14:01:36;;;;;;;2.80;1.43;;;;;;;;;;5042854;28;20412;-82
2022/01/01 14:04:03;;;;;;;4.23;1.73;;;;;;;;;;5028327;28;20503;-80
2022/01/01 14:06:29;;;;;;;7.90;1.43;;;;;;;;;;5014753;28;20920;-81
2022/01/01 14:08:59;;;;;;;4.37;1.70;;;;;;;;;;5016352;28;20471;-82
2022/01/01 14:11:33;;;;;;;2.27;1.30;;;;;;;;;;5034147;28;20421;-82
2022/01/01 14:14:05;;;;;;;2.27;1.10;;;;;;;;;;5034588;28;20921;-82
2022/01/01 14:16:32;;;;;;;2.20;1.30;;;;;;;;;;5033074;28;20428;-82
2022/01/01 14:19:00;;;;;;;5.37;1.00;;;;;;;;;;5033286;28;20494;-82
2022/01/01 14:21:27;;;;;;;3.30;1.10;;;;;;;;;;5032827;28;20447;-82
2022/01/01 14:23:55;;;;;;;1.57;1.07;;;;;;;;;;5034503;28;20760;-82
2022/01/01 14:26:22;;;;;;;2.60;1.63;;;;;;;;;;5033894;28;20483;-82
2022/01/01 14:28:54;;;;;;;3.43;2.60;;;;;;;;;;5032542;28;20467;-82
2022/01/01 14:31:21;;;;;;;2.20;1.27;;;;;;;;;;5012674;28;20409;-82
2022/01/01 14:33:49;;;;;;;2.53;1.50;;;;;;;;;;5014122;28;20932;-81
2022/01/01 14:36:15;;;;;;;2.00;1.20;;;;;;;;;;5014159;28;20420;-82
2022/01/01 14:38:42;;;;;;;2.27;1.00;;;;;;;;;;5014662;28;20983;-81
2022/01/01 14:41:09;;;;;;;1.90;1.27;;;;;;;;;;5015618;28;20496;-81
2022/01/01 14:43:35;;;;;;;2.17;1.40;;;;;;;;;;5016386;28;20504;-81
2022/01/01 14:46:05;;;;;;;2.60;1.40;;;;;;;;;;5015990;28;20468;-81
2022/01/01 14:48:42;;;;;;;2.90;1.50;;;;;;;;;;5016985;28;20472;-81
2022/01/01 14:51:13;;;;;;;2.27;1.40;;;;;;;;;;5016367;28;20417;-81
2022/01/01 14:53:49;;;;;;;2.60;1.33;;;;;;;;;;5016853;28;20445;-81
2022/01/01 14:56:27;;;;;;;2.70;1.50;;;;;;;;;;5030533;28;20427;-81